BAC Airport (Barnes County Muni) Information

FAA: BAC - ICAO: KBAC

BAC Airport Location

State North Dakota
County Barnes
City Valley City
BAC Airport is 1 mile northwest of Valley City, ND.
Latitude 46-56-28.3350N
Longitude 098-01-04.8490W
Elevation 1,401ft

KBAC Airport METARs

METAR KBAC 280055Z AUTO 26003KT 9SM FEW075 OVC100 07/07 A2974 RMK AO2
Altimeter 29.74"
Temperature 7.0°C (44.6°F)
Wind 260° at 3KT
Clouds few at 7,500ft overcast at 10,000ft
Visibility 9.0mi
Time observed: 2021-10-28T00:55:00Z

BAC Airport Details

Status Operational
Activation December 1938
Ownership Public
Usage Public
Chart TWIN CITIES
ATC on-site No
Beacon schedule sunset-sunrise
Beacon color clear green

BAC Airport Contacts

Owner BARNES COUNTY AIRPORT AUTHORITY
Owner address P.O. BOX 2, VALLEY CITY, ND 58072
Owner phone 701-840-2029
Manager STEVEN MARTENS
Manager address PO BOX 252, STANLEY, ND 58784
Manager phone (701) 629-0044

BAC Airport (Barnes County Muni) Radio Frequencies

BAC (Airport) Radio Frequencies

UNICOM 122.8
Common traffic advisory frequency (CTAF) 122.8